createdAt,value
2023-05-21T00:00:55.505Z,9.35
2023-05-21T00:03:27.050Z,9.48
2023-05-21T00:05:55.244Z,9.05
2023-05-21T00:08:23.152Z,9.52
2023-05-21T00:10:51.086Z,9.45
2023-05-21T00:13:19.123Z,9.32
2023-05-21T00:15:47.266Z,9.88
2023-05-21T00:18:16.695Z,9.43
2023-05-21T00:20:45.769Z,9.98
2023-05-21T00:23:13.864Z,9.27
2023-05-21T00:25:41.875Z,9.98
2023-05-21T00:28:09.837Z,9.63
2023-05-21T00:30:37.731Z,9.63
2023-05-21T00:33:05.662Z,9.77
2023-05-21T00:35:35.772Z,9.50
2023-05-21T00:38:03.893Z,9.70
2023-05-21T00:40:32.267Z,9.88
2023-05-21T00:43:00.185Z,10.30
2023-05-21T00:45:29.576Z,9.77
2023-05-21T00:47:57.782Z,10.40
2023-05-21T00:50:26.144Z,10.15
2023-05-21T00:52:55.520Z,10.00
2023-05-21T00:55:23.626Z,9.88
2023-05-21T00:57:51.661Z,9.85
2023-05-21T01:00:20.322Z,10.82
2023-05-21T01:02:49.936Z,10.40
2023-05-21T01:05:18.249Z,10.80
2023-05-21T01:07:46.764Z,10.68
2023-05-21T01:10:16.320Z,10.73
2023-05-21T01:12:45.637Z,10.77
2023-05-21T01:15:14.240Z,10.18
2023-05-21T01:17:45.936Z,10.38
2023-05-21T01:20:14.594Z,10.50
2023-05-21T01:22:45.176Z,11.00
2023-05-21T01:25:15.066Z,10.82
2023-05-21T01:27:43.231Z,11.55
2023-05-21T01:30:12.393Z,11.15
2023-05-21T01:32:56.163Z,10.68
2023-05-21T01:35:29.226Z,10.80
2023-05-21T01:38:04.408Z,10.95
2023-05-21T01:40:39.264Z,10.85
2023-05-21T01:43:08.805Z,12.02
2023-05-21T01:45:40.658Z,10.48
2023-05-21T01:48:10.138Z,10.90
2023-05-21T01:50:40.459Z,10.70
2023-05-21T01:53:08.526Z,11.07
2023-05-21T01:55:41.831Z,11.63
2023-05-21T01:58:10.038Z,11.38
2023-05-21T02:00:39.888Z,11.20
2023-05-21T02:03:08.023Z,12.10
2023-05-21T02:05:36.555Z,11.68
2023-05-21T02:08:05.489Z,11.50
2023-05-21T02:10:33.652Z,11.75
2023-05-21T02:13:03.343Z,11.27
2023-05-21T02:15:34.886Z,11.93
2023-05-21T02:18:03.516Z,10.85
2023-05-21T02:20:31.806Z,11.63
2023-05-21T02:22:59.796Z,11.32
2023-05-21T02:25:27.678Z,11.70
2023-05-21T02:27:56.776Z,11.43
2023-05-21T02:30:26.429Z,11.73
2023-05-21T02:32:54.902Z,11.80
2023-05-21T02:35:23.134Z,11.98
2023-05-21T02:37:51.178Z,11.63
2023-05-21T02:40:19.068Z,11.95
2023-05-21T02:42:47.242Z,11.25
2023-05-21T02:45:19.594Z,11.35
2023-05-21T02:47:49.485Z,11.88
2023-05-21T02:50:22.340Z,12.48
2023-05-21T02:52:56.091Z,11.63
2023-05-21T02:55:24.214Z,12.10
2023-05-21T02:57:52.241Z,12.30
2023-05-21T03:00:20.441Z,11.63
2023-05-21T03:02:49.801Z,10.88
2023-05-21T03:05:18.216Z,11.48
2023-05-21T03:07:46.327Z,11.77
2023-05-21T03:10:14.307Z,11.30
2023-05-21T03:12:42.289Z,11.35
2023-05-21T03:15:11.233Z,11.77
2023-05-21T03:17:39.450Z,11.60
2023-05-21T03:20:16.102Z,11.15
2023-05-21T03:22:44.563Z,10.35
2023-05-21T03:25:13.994Z,11.32
2023-05-21T03:27:42.035Z,11.13
2023-05-21T03:30:25.727Z,10.85
2023-05-21T03:33:19.856Z,11.00
2023-05-21T03:35:49.190Z,11.10
2023-05-21T03:38:17.119Z,11.00
2023-05-21T03:40:45.187Z,11.13
2023-05-21T03:43:13.587Z,11.00
2023-05-21T03:45:44.170Z,11.35
2023-05-21T03:48:51.027Z,10.40
2023-05-21T03:51:25.754Z,11.40
2023-05-21T03:53:53.811Z,11.32
2023-05-21T03:56:23.022Z,10.85
2023-05-21T03:58:51.118Z,11.10
2023-05-21T04:01:19.564Z,12.77
2023-05-21T04:03:49.586Z,11.25
2023-05-21T04:06:19.070Z,10.98
2023-05-21T04:08:48.431Z,11.57
2023-05-21T04:11:16.834Z,10.40
2023-05-21T04:13:44.790Z,9.88
2023-05-21T04:16:14.756Z,10.18
2023-05-21T04:18:44.938Z,10.00
2023-05-21T04:21:14.802Z,10.13
2023-05-21T04:23:42.977Z,11.23
2023-05-21T04:26:25.293Z,10.35
2023-05-21T04:28:54.047Z,11.23
2023-05-21T04:31:23.280Z,9.77
2023-05-21T04:33:52.000Z,9.85
2023-05-21T04:36:20.169Z,10.30
2023-05-21T04:38:48.769Z,10.45
2023-05-21T04:41:19.010Z,10.40
2023-05-21T04:43:48.533Z,10.00
2023-05-21T04:46:17.771Z,9.82
2023-05-21T04:48:46.836Z,11.60
2023-05-21T04:51:15.074Z,10.25
2023-05-21T04:53:43.150Z,10.38
2023-05-21T04:56:11.119Z,10.20
2023-05-21T04:58:40.538Z,10.32
2023-05-21T05:01:09.964Z,10.05
2023-05-21T05:03:38.059Z,10.18
2023-05-21T05:06:07.828Z,9.73
2023-05-21T05:08:36.263Z,10.25
2023-05-21T05:11:05.187Z,10.43
2023-05-21T05:13:33.851Z,9.27
2023-05-21T05:16:02.278Z,9.77
2023-05-21T05:18:31.873Z,9.68
2023-05-21T05:20:59.916Z,9.52
2023-05-21T05:23:27.845Z,9.65
2023-05-21T05:25:55.990Z,10.07
2023-05-21T05:28:24.006Z,9.10
2023-05-21T05:30:52.077Z,13.05
2023-05-21T05:33:29.150Z,10.00
2023-05-21T05:35:58.515Z,9.30
2023-05-21T05:38:27.028Z,8.75
2023-05-21T05:40:55.100Z,8.77
2023-05-21T05:43:23.079Z,8.90
2023-05-21T05:45:51.219Z,9.65
2023-05-21T05:48:20.358Z,9.88
2023-05-21T05:50:49.249Z,8.95
2023-05-21T05:53:18.618Z,8.98
2023-05-21T05:55:46.507Z,8.82
2023-05-21T05:58:14.776Z,8.48
2023-05-21T06:00:52.442Z,8.20
2023-05-21T06:03:20.431Z,8.38
2023-05-21T06:05:50.101Z,8.60
2023-05-21T06:08:19.449Z,7.68
2023-05-21T06:10:47.353Z,9.60
2023-05-21T06:13:16.113Z,9.48
2023-05-21T06:15:44.062Z,8.50
2023-05-21T06:18:12.410Z,7.97
2023-05-21T06:20:40.450Z,8.10
2023-05-21T06:23:09.670Z,8.38
2023-05-21T06:25:40.573Z,8.75
2023-05-21T06:28:09.536Z,8.23
2023-05-21T06:30:37.528Z,7.95
2023-05-21T06:33:05.643Z,8.00
2023-05-21T06:35:37.108Z,7.97
2023-05-21T06:38:05.431Z,7.88
2023-05-21T06:40:33.722Z,7.88
2023-05-21T06:43:04.853Z,7.85
2023-05-21T06:45:51.498Z,7.80
2023-05-21T06:48:28.915Z,7.82
2023-05-21T06:50:56.852Z,7.68
2023-05-21T06:53:24.736Z,7.82
2023-05-21T06:55:54.028Z,7.75
2023-05-21T06:58:39.063Z,7.70
2023-05-21T07:01:07.545Z,7.60
2023-05-21T07:03:37.360Z,8.00
2023-05-21T07:06:05.472Z,8.10
2023-05-21T07:08:33.438Z,8.73
2023-05-21T07:11:01.691Z,8.27
2023-05-21T07:13:30.904Z,7.78
2023-05-21T07:16:00.391Z,7.40
2023-05-21T07:18:28.827Z,7.65
2023-05-21T07:20:57.117Z,7.85
2023-05-21T07:23:26.176Z,6.95
2023-05-21T07:25:54.471Z,7.30
2023-05-21T07:28:23.093Z,7.30
2023-05-21T07:30:51.075Z,7.25
2023-05-21T07:33:24.868Z,7.13
2023-05-21T07:35:53.710Z,7.32
2023-05-21T07:38:21.661Z,6.97
2023-05-21T07:40:49.999Z,7.25
2023-05-21T07:43:18.053Z,7.60
2023-05-21T07:45:46.067Z,7.15
2023-05-21T07:48:14.255Z,7.22
2023-05-21T07:50:53.925Z,7.95
2023-05-21T07:53:22.314Z,7.35
2023-05-21T07:55:51.527Z,7.03
2023-05-21T07:58:24.989Z,7.30
2023-05-21T08:00:53.947Z,7.15
2023-05-21T08:03:22.052Z,7.38
2023-05-21T08:05:51.149Z,7.22
2023-05-21T08:08:22.105Z,7.07
2023-05-21T08:10:51.802Z,7.22
2023-05-21T08:13:20.801Z,7.72
2023-05-21T08:15:52.754Z,7.45
2023-05-21T08:18:23.850Z,8.10
2023-05-21T08:20:54.389Z,7.78
2023-05-21T08:23:24.701Z,8.10
2023-05-21T08:25:56.065Z,7.88
2023-05-21T08:28:24.499Z,7.72
2023-05-21T08:30:53.451Z,8.35
2023-05-21T08:33:23.453Z,7.82
2023-05-21T08:35:51.562Z,7.93
2023-05-21T08:38:42.930Z,7.85
2023-05-21T08:41:19.482Z,7.32
2023-05-21T08:43:50.440Z,7.75
2023-05-21T08:46:23.167Z,7.25
2023-05-21T08:48:54.900Z,7.50
2023-05-21T08:51:23.513Z,7.10
2023-05-21T08:53:55.864Z,7.07
2023-05-21T08:56:24.745Z,6.93
2023-05-21T08:58:59.777Z,6.68
2023-05-21T09:01:34.535Z,6.90
2023-05-21T09:04:21.381Z,6.70
2023-05-21T09:06:54.080Z,7.00
2023-05-21T09:09:50.217Z,6.75
2023-05-21T09:12:19.215Z,7.22
2023-05-21T09:14:49.037Z,6.97
2023-05-21T09:17:20.313Z,6.53
2023-05-21T09:20:11.020Z,6.50
2023-05-21T09:22:44.021Z,6.93
2023-05-21T09:25:15.014Z,6.60
2023-05-21T09:27:43.182Z,6.72
2023-05-21T09:30:13.299Z,6.07
2023-05-21T09:32:42.332Z,6.53
2023-05-21T09:35:11.815Z,7.20
2023-05-21T09:37:40.690Z,6.78
2023-05-21T09:40:15.518Z,6.57
2023-05-21T09:42:47.789Z,6.25
2023-05-21T09:45:19.880Z,6.35
2023-05-21T09:47:48.800Z,7.10
2023-05-21T09:50:20.073Z,6.10
2023-05-21T09:52:50.333Z,6.63
2023-05-21T09:55:23.257Z,6.57
2023-05-21T09:57:51.634Z,6.25
2023-05-21T10:00:21.299Z,6.10
2023-05-21T10:02:50.682Z,6.25
2023-05-21T10:05:18.818Z,6.15
2023-05-21T10:07:53.974Z,5.38
2023-05-21T10:10:24.962Z,6.32
2023-05-21T10:12:57.075Z,5.85
2023-05-21T10:15:33.415Z,5.75
2023-05-21T10:18:04.845Z,5.70
2023-05-21T10:20:36.567Z,5.72
2023-05-21T10:23:06.560Z,5.80
2023-05-21T10:25:37.586Z,6.00
2023-05-21T10:28:15.915Z,6.20
2023-05-21T10:30:44.452Z,5.85
2023-05-21T10:33:14.446Z,5.55
2023-05-21T10:35:42.406Z,6.32
2023-05-21T10:38:10.548Z,6.00
2023-05-21T10:40:39.918Z,6.53
2023-05-21T10:43:35.653Z,6.00
2023-05-21T10:46:26.822Z,5.80
2023-05-21T10:49:11.655Z,6.30
2023-05-21T10:51:54.133Z,5.60
2023-05-21T10:54:54.504Z,6.45
2023-05-21T10:58:11.532Z,5.88
2023-05-21T11:00:39.936Z,6.13
2023-05-21T11:03:09.205Z,6.40
2023-05-21T11:05:42.245Z,6.10
2023-05-21T11:08:23.426Z,5.87
2023-05-21T11:10:55.879Z,6.20
2023-05-21T11:13:25.928Z,6.13
2023-05-21T11:16:09.326Z,6.40
2023-05-21T11:21:26.230Z,6.10
2023-05-21T11:23:55.307Z,6.22
2023-05-21T11:26:24.430Z,6.10
2023-05-21T11:29:08.240Z,6.07
2023-05-21T11:31:39.271Z,6.10
2023-05-21T11:34:13.566Z,6.25
2023-05-21T11:36:42.386Z,6.43
2023-05-21T11:39:11.896Z,6.75
2023-05-21T11:41:53.823Z,6.32
2023-05-21T11:44:39.944Z,6.78
2023-05-21T11:47:09.937Z,6.53
2023-05-21T11:49:38.942Z,6.03
2023-05-21T11:52:09.290Z,5.95
2023-05-21T11:54:42.185Z,6.53
2023-05-21T11:57:11.286Z,5.82
2023-05-21T11:59:40.582Z,6.85
2023-05-21T12:02:09.225Z,6.40
2023-05-21T12:04:37.799Z,6.00
2023-05-21T12:07:07.267Z,6.40
2023-05-21T12:09:40.481Z,5.80
2023-05-21T12:12:10.198Z,6.22
2023-05-21T12:14:38.375Z,6.13
2023-05-21T12:17:10.301Z,5.85
2023-05-21T12:19:38.940Z,6.28
2023-05-21T12:22:07.470Z,6.07
2023-05-21T12:24:36.454Z,6.10
2023-05-21T12:27:09.428Z,5.68
2023-05-21T12:29:38.777Z,5.77
2023-05-21T12:32:10.203Z,6.25
2023-05-21T12:34:44.508Z,5.70
2023-05-21T12:37:13.281Z,6.20
2023-05-21T12:39:41.902Z,6.70
2023-05-21T12:42:11.272Z,6.18
2023-05-21T12:44:40.632Z,5.80
2023-05-21T12:47:11.211Z,6.13
2023-05-21T12:49:41.316Z,6.40
2023-05-21T12:52:13.587Z,5.93
2023-05-21T12:54:43.143Z,5.95
2023-05-21T12:57:14.549Z,6.40
2023-05-21T12:59:50.151Z,5.97
2023-05-21T13:02:21.301Z,6.28
2023-05-21T13:04:54.982Z,6.35
2023-05-21T13:07:23.071Z,6.10
2023-05-21T13:09:53.135Z,6.38
2023-05-21T13:12:22.892Z,6.07
2023-05-21T13:14:51.169Z,6.60
2023-05-21T13:17:21.356Z,6.07
2023-05-21T13:20:08.591Z,6.15
2023-05-21T13:22:39.087Z,5.75
2023-05-21T13:25:08.198Z,6.38
2023-05-21T13:27:36.289Z,6.10
2023-05-21T13:30:04.692Z,6.18
2023-05-21T13:32:34.159Z,6.57
2023-05-21T13:35:02.304Z,6.53
2023-05-21T13:37:30.724Z,6.00
2023-05-21T13:40:02.179Z,6.28
2023-05-21T13:42:30.204Z,6.30
2023-05-21T13:44:58.166Z,6.20
2023-05-21T13:47:26.285Z,6.20
2023-05-21T13:49:55.585Z,6.18
2023-05-21T13:52:23.672Z,6.35
2023-05-21T13:54:52.039Z,6.43
2023-05-21T13:57:20.653Z,7.10
2023-05-21T13:59:50.501Z,5.88
2023-05-21T14:02:18.580Z,6.10
2023-05-21T14:04:46.505Z,6.75
2023-05-21T14:07:15.960Z,6.90
2023-05-21T14:09:44.008Z,6.43
2023-05-21T14:12:11.922Z,7.00
2023-05-21T14:14:39.878Z,6.28
2023-05-21T14:17:07.942Z,6.82
2023-05-21T14:19:36.106Z,6.88
2023-05-21T14:22:05.470Z,6.93
2023-05-21T14:24:34.728Z,6.60
2023-05-21T14:27:02.599Z,8.35
2023-05-21T14:29:30.626Z,7.50
2023-05-21T14:31:58.557Z,7.55
2023-05-21T14:34:26.460Z,7.70
2023-05-21T14:36:54.420Z,7.70
2023-05-21T14:39:22.377Z,7.40
2023-05-21T14:41:51.786Z,7.72
2023-05-21T14:44:19.842Z,8.07
2023-05-21T14:46:47.636Z,7.65
2023-05-21T14:49:15.742Z,7.32
2023-05-21T14:51:44.984Z,6.78
2023-05-21T14:54:12.858Z,6.72
2023-05-21T14:56:40.852Z,7.07
2023-05-21T14:59:11.389Z,7.55
2023-05-21T15:01:39.572Z,7.05
2023-05-21T15:04:08.219Z,9.60
2023-05-21T15:06:36.498Z,7.65
2023-05-21T15:09:04.483Z,7.05
2023-05-21T15:11:33.692Z,8.63
2023-05-21T15:14:01.625Z,11.18
2023-05-21T15:16:31.287Z,7.75
2023-05-21T15:18:59.526Z,6.95
2023-05-21T15:21:28.200Z,7.55
2023-05-21T15:23:56.302Z,6.90
2023-05-21T15:26:25.514Z,6.95
2023-05-21T15:28:53.431Z,7.22
2023-05-21T15:31:21.307Z,7.03
2023-05-21T15:33:50.597Z,7.43
2023-05-21T15:36:18.628Z,8.10
2023-05-21T15:38:46.641Z,8.07
2023-05-21T15:41:14.577Z,8.32
2023-05-21T15:43:42.729Z,9.13
2023-05-21T15:46:11.203Z,9.02
2023-05-21T15:48:39.232Z,7.30
2023-05-21T15:51:08.504Z,7.35
2023-05-21T15:53:36.331Z,7.55
2023-05-21T15:56:04.485Z,6.93
2023-05-21T15:58:32.456Z,6.00
2023-05-21T16:01:00.459Z,4.88
2023-05-21T16:03:28.556Z,4.97
2023-05-21T16:05:56.658Z,5.00
2023-05-21T16:08:26.222Z,5.72
2023-05-21T16:10:54.271Z,6.40
2023-05-21T16:13:22.187Z,6.03
2023-05-21T16:15:50.289Z,5.70
2023-05-21T16:18:18.360Z,7.40
2023-05-21T16:20:48.128Z,8.05
2023-05-21T16:23:16.178Z,7.57
2023-05-21T16:25:45.572Z,8.02
2023-05-21T16:28:13.642Z,8.50
2023-05-21T16:30:41.743Z,8.00
2023-05-21T16:33:10.061Z,8.00
2023-05-21T16:35:38.348Z,7.70
2023-05-21T16:38:06.542Z,8.55
2023-05-21T16:40:34.716Z,7.93
2023-05-21T16:43:04.250Z,8.23
2023-05-21T16:45:39.621Z,7.25
2023-05-21T16:48:08.115Z,7.30
2023-05-21T16:50:36.070Z,4.40
2023-05-21T16:53:06.054Z,4.97
2023-05-21T16:55:35.363Z,8.10
2023-05-21T16:58:06.064Z,6.10
2023-05-21T17:00:35.185Z,4.85
2023-05-21T17:03:03.383Z,4.75
2023-05-21T17:05:31.644Z,5.18
2023-05-21T17:07:59.547Z,5.20
2023-05-21T17:10:27.587Z,5.53
2023-05-21T17:12:55.812Z,6.20
2023-05-21T17:15:27.444Z,6.20
2023-05-21T17:17:55.547Z,6.20
2023-05-21T17:20:25.521Z,6.30
2023-05-21T17:22:53.669Z,7.75
2023-05-21T17:25:21.877Z,9.05
2023-05-21T17:27:50.814Z,14.27
2023-05-21T17:30:19.214Z,14.18
2023-05-21T17:32:48.768Z,10.80
2023-05-21T17:35:16.968Z,9.68
2023-05-21T17:37:44.961Z,10.20
2023-05-21T17:40:13.645Z,9.35
2023-05-21T17:42:41.689Z,9.82
2023-05-21T17:45:10.302Z,10.27
2023-05-21T17:47:38.282Z,10.73
2023-05-21T17:50:09.545Z,11.85
2023-05-21T17:52:37.559Z,13.05
2023-05-21T17:55:06.298Z,13.25
2023-05-21T17:57:35.467Z,14.80
2023-05-21T18:00:04.699Z,14.88
2023-05-21T18:02:39.764Z,14.63
2023-05-21T18:05:09.570Z,13.90
2023-05-21T18:07:38.180Z,12.35
2023-05-21T18:10:06.987Z,12.13
2023-05-21T18:12:34.960Z,12.43
2023-05-21T18:15:02.993Z,11.40
2023-05-21T18:17:31.168Z,10.95
2023-05-21T18:19:59.123Z,11.10
2023-05-21T18:22:28.393Z,11.30
2023-05-21T18:24:56.292Z,10.63
2023-05-21T18:27:24.181Z,10.50
2023-05-21T18:29:52.306Z,10.75
2023-05-21T18:32:20.812Z,11.27
2023-05-21T18:34:49.709Z,11.10
2023-05-21T18:37:18.434Z,11.70
2023-05-21T18:39:47.690Z,11.68
2023-05-21T18:42:15.706Z,11.65
2023-05-21T18:44:45.821Z,12.38
2023-05-21T18:47:14.327Z,12.23
2023-05-21T18:49:42.231Z,11.65
2023-05-21T18:52:10.168Z,12.55
2023-05-21T18:54:38.039Z,12.93
2023-05-21T18:57:07.694Z,13.00
2023-05-21T18:59:36.284Z,12.77
2023-05-21T19:02:05.557Z,13.45
2023-05-21T19:04:33.656Z,13.68
2023-05-21T19:07:02.737Z,13.65
2023-05-21T19:09:30.964Z,16.05
2023-05-21T19:12:00.469Z,15.10
2023-05-21T19:14:29.721Z,15.15
2023-05-21T19:16:57.668Z,14.05
2023-05-21T19:19:25.842Z,14.90
2023-05-21T19:21:54.045Z,15.73
2023-05-21T19:24:22.022Z,14.93
2023-05-21T19:26:49.948Z,15.30
2023-05-21T19:29:17.906Z,15.43
2023-05-21T19:31:47.210Z,14.90
2023-05-21T19:34:15.168Z,15.30
2023-05-21T19:36:52.764Z,15.13
2023-05-21T19:39:21.212Z,15.32
2023-05-21T19:41:49.193Z,15.45
2023-05-21T19:44:17.324Z,14.98
2023-05-21T19:46:45.369Z,15.10
2023-05-21T19:49:15.872Z,14.80
2023-05-21T19:51:43.946Z,15.07
2023-05-21T19:54:11.902Z,14.88
2023-05-21T19:56:39.871Z,14.00
2023-05-21T19:59:07.872Z,13.70
2023-05-21T20:01:41.347Z,14.60
2023-05-21T20:04:09.470Z,13.93
2023-05-21T20:06:39.041Z,14.80
2023-05-21T20:09:07.856Z,14.48
2023-05-21T20:11:36.181Z,14.57
2023-05-21T20:14:04.430Z,14.40
2023-05-21T20:16:33.347Z,14.27
2023-05-21T20:19:01.846Z,14.68
2023-05-21T20:21:31.524Z,13.70
2023-05-21T20:24:01.038Z,14.10
2023-05-21T20:26:29.603Z,15.18
2023-05-21T20:28:57.495Z,14.52
2023-05-21T20:31:25.669Z,14.63
2023-05-21T20:33:53.843Z,14.98
2023-05-21T20:36:22.136Z,15.38
2023-05-21T20:38:49.982Z,15.73
2023-05-21T20:41:20.032Z,15.80
2023-05-21T20:43:48.096Z,16.08
2023-05-21T20:46:17.507Z,16.65
2023-05-21T20:48:45.575Z,17.17
2023-05-21T20:51:13.471Z,16.30
2023-05-21T20:53:41.480Z,16.88
2023-05-21T20:56:11.636Z,18.55
2023-05-21T20:58:40.995Z,17.67
2023-05-21T21:01:10.526Z,18.38
2023-05-21T21:03:41.300Z,18.75
2023-05-21T21:06:09.769Z,18.88
2023-05-21T21:08:40.244Z,18.73
2023-05-21T21:11:09.091Z,18.50
2023-05-21T21:13:37.174Z,19.05
2023-05-21T21:16:07.806Z,18.45
2023-05-21T21:18:35.834Z,18.92
2023-05-21T21:21:03.825Z,18.75
2023-05-21T21:23:31.760Z,19.25
2023-05-21T21:25:59.830Z,18.92
2023-05-21T21:28:27.712Z,18.58
2023-05-21T21:30:55.720Z,19.77
2023-05-21T21:33:26.721Z,18.83
2023-05-21T21:35:54.732Z,20.10
2023-05-21T21:38:22.864Z,18.90
2023-05-21T21:40:50.794Z,19.27
2023-05-21T21:43:18.796Z,20.05
2023-05-21T21:45:46.714Z,19.20
2023-05-21T21:48:16.469Z,19.77
2023-05-21T21:50:46.198Z,19.98
2023-05-21T21:53:14.197Z,20.40
2023-05-21T21:55:42.093Z,20.83
2023-05-21T21:58:10.146Z,21.10
2023-05-21T22:00:38.320Z,20.85
2023-05-21T22:03:06.357Z,20.38
2023-05-21T22:05:34.316Z,19.42
2023-05-21T22:08:03.918Z,20.00
2023-05-21T22:10:33.409Z,19.80
2023-05-21T22:13:02.646Z,20.20
2023-05-21T22:15:32.074Z,19.92
2023-05-21T22:18:02.410Z,20.88
2023-05-21T22:20:30.765Z,20.58
2023-05-21T22:22:59.094Z,19.85
2023-05-21T22:25:28.309Z,20.25
2023-05-21T22:27:56.301Z,20.88
2023-05-21T22:30:24.197Z,20.92
2023-05-21T22:32:52.163Z,21.92
2023-05-21T22:35:20.557Z,21.95
2023-05-21T22:37:48.444Z,22.15
2023-05-21T22:40:16.460Z,21.38
2023-05-21T22:42:46.188Z,20.42
2023-05-21T22:45:15.356Z,20.95
2023-05-21T22:47:43.286Z,21.20
2023-05-21T22:50:12.781Z,20.75
2023-05-21T22:52:40.902Z,20.67
2023-05-21T22:55:11.256Z,21.30
2023-05-21T22:57:39.362Z,20.70
2023-05-21T23:00:10.850Z,20.98
2023-05-21T23:02:38.973Z,20.77
2023-05-21T23:05:07.268Z,21.40
2023-05-21T23:07:35.183Z,20.10
2023-05-21T23:10:03.081Z,20.80
2023-05-21T23:12:31.035Z,20.52
2023-05-21T23:14:58.936Z,20.77
2023-05-21T23:17:28.321Z,21.38
2023-05-21T23:19:56.339Z,20.90
2023-05-21T23:22:24.351Z,20.75
2023-05-21T23:24:53.994Z,20.55
2023-05-21T23:27:21.909Z,20.40
2023-05-21T23:29:49.847Z,20.13
2023-05-21T23:32:17.836Z,20.52
2023-05-21T23:34:47.159Z,21.65
2023-05-21T23:37:15.165Z,20.15
2023-05-21T23:39:44.209Z,20.95
2023-05-21T23:42:12.222Z,21.48
2023-05-21T23:44:40.126Z,20.92
2023-05-21T23:47:08.057Z,21.48
2023-05-21T23:49:35.972Z,21.33
2023-05-21T23:52:07.385Z,21.35
2023-05-21T23:54:35.489Z,21.75
2023-05-21T23:57:03.377Z,20.98
2023-05-21T23:59:31.269Z,21.00
